Afranio, Brazil
Current Conditions -  °F | °C
As of 3:00 PM on Monday 20 Oct 2014 (Local Time) from SBPL Reporting Station
Scattered Clouds Scattered Clouds  
Wind Chill: 99°   Ceiling: Unl
Heat Index: 99°   Visibility: 6mi
Dew Point: 61°   Wind: 7mph
Humidity: 29%   Direction: 120°ESE
Pressure: 29.8"   Gusts: NA
Location:  8.52°S, 41°W
Report Text: SBPL 201800Z 12006KT 9999 SCT040 37/16 Q1009
Loading
Personal Weather Stations






























Interactive Weather Map
Tropical Storm Tracking
New forecast layout! Learn more

10-Day Weather Forecast

Advertisements
Track Severe Weather on mobile